createdAt,value
2022-10-11T00:00:41.716Z,1.98
2022-10-11T00:03:08.233Z,1.50
2022-10-11T00:05:34.989Z,1.80
2022-10-11T00:08:01.540Z,1.50
2022-10-11T00:10:28.018Z,1.55
2022-10-11T00:12:54.469Z,1.60
2022-10-11T00:15:21.312Z,1.65
2022-10-11T00:17:47.909Z,1.65
2022-10-11T00:20:14.393Z,1.48
2022-10-11T00:22:40.890Z,1.63
2022-10-11T00:25:08.086Z,2.13
2022-10-11T00:27:34.929Z,1.60
2022-10-11T00:30:01.465Z,1.50
2022-10-11T00:32:28.256Z,1.10
2022-10-11T00:34:56.105Z,1.50
2022-10-11T00:37:22.848Z,1.58
2022-10-11T00:39:49.584Z,1.33
2022-10-11T00:42:18.286Z,1.67
2022-10-11T00:44:47.705Z,1.40
2022-10-11T00:47:20.851Z,1.50
2022-10-11T00:49:54.496Z,1.77
2022-10-11T00:52:31.562Z,1.70
2022-10-11T00:54:59.672Z,1.70
2022-10-11T00:57:26.857Z,1.48
2022-10-11T00:59:54.959Z,1.60
2022-10-11T01:02:21.729Z,1.67
2022-10-11T01:04:54.297Z,1.42
2022-10-11T01:07:31.184Z,1.52
2022-10-11T01:09:58.196Z,1.40
2022-10-11T01:12:25.247Z,1.35
2022-10-11T01:15:00.873Z,1.40
2022-10-11T01:17:33.718Z,1.40
2022-10-11T01:20:43.218Z,1.50
2022-10-11T01:23:27.600Z,1.33
2022-10-11T01:28:54.910Z,1.35
2022-10-11T01:31:25.889Z,1.23
2022-10-11T01:34:06.118Z,1.40
2022-10-11T01:36:55.730Z,1.20
2022-10-11T01:39:38.867Z,1.45
2022-10-11T01:42:05.774Z,1.30
2022-10-11T01:44:32.421Z,1.08
2022-10-11T01:46:58.892Z,1.10
2022-10-11T01:49:25.341Z,1.13
2022-10-11T01:51:53.190Z,1.30
2022-10-11T01:55:08.002Z,1.42
2022-10-11T01:57:48.834Z,1.20
2022-10-11T02:00:20.347Z,1.10
2022-10-11T02:03:07.280Z,1.20
2022-10-11T02:05:45.292Z,1.10
2022-10-11T02:08:27.046Z,1.05
2022-10-11T02:11:02.307Z,1.50
2022-10-11T02:13:32.545Z,1.00
2022-10-11T02:16:00.595Z,1.17
2022-10-11T02:18:29.771Z,1.38
2022-10-11T02:20:56.269Z,1.15
2022-10-11T02:23:28.107Z,1.20
2022-10-11T02:25:54.650Z,1.23
2022-10-11T02:28:24.401Z,1.25
2022-10-11T02:30:50.955Z,1.25
2022-10-11T02:33:19.127Z,1.02
2022-10-11T02:35:47.775Z,1.13
2022-10-11T02:38:17.189Z,1.17
2022-10-11T02:40:46.225Z,1.38
2022-10-11T02:43:23.909Z,1.05
2022-10-11T02:45:52.748Z,1.17
2022-10-11T02:48:19.274Z,1.25
2022-10-11T02:50:45.750Z,1.00
2022-10-11T02:53:12.208Z,1.38
2022-10-11T02:55:38.696Z,1.35
2022-10-11T02:58:05.187Z,1.17
2022-10-11T03:00:31.721Z,1.10
2022-10-11T03:02:58.193Z,1.00
2022-10-11T03:05:24.668Z,1.15
2022-10-11T03:07:51.124Z,1.10
2022-10-11T03:10:17.606Z,1.10
2022-10-11T03:12:44.065Z,1.00
2022-10-11T03:15:10.653Z,1.25
2022-10-11T03:17:37.576Z,1.35
2022-10-11T03:20:05.487Z,1.00
2022-10-11T03:22:31.960Z,1.00
2022-10-11T03:25:03.383Z,1.10
2022-10-11T03:27:30.866Z,0.90
2022-10-11T03:29:57.765Z,1.00
2022-10-11T03:32:24.335Z,0.90
2022-10-11T03:34:50.828Z,0.90
2022-10-11T03:37:17.713Z,1.05
2022-10-11T03:39:45.573Z,0.82
2022-10-11T03:42:12.824Z,1.35
2022-10-11T03:44:39.294Z,1.08
2022-10-11T03:47:05.977Z,1.08
2022-10-11T03:49:32.431Z,1.02
2022-10-11T03:51:59.160Z,1.00
2022-10-11T03:54:25.808Z,1.20
2022-10-11T03:56:52.423Z,0.80
2022-10-11T03:59:18.888Z,1.00
2022-10-11T04:01:45.424Z,1.08
2022-10-11T04:04:11.923Z,1.35
2022-10-11T04:06:38.399Z,0.85
2022-10-11T04:09:05.037Z,0.95
2022-10-11T04:11:31.512Z,0.82
2022-10-11T04:13:58.002Z,0.88
2022-10-11T04:16:24.461Z,0.90
2022-10-11T04:18:50.922Z,0.90
2022-10-11T04:21:17.911Z,1.00
2022-10-11T04:23:44.427Z,1.17
2022-10-11T04:26:10.938Z,1.02
2022-10-11T04:28:37.474Z,0.90
2022-10-11T04:31:05.205Z,0.85
2022-10-11T04:33:31.693Z,1.08
2022-10-11T04:35:58.506Z,1.00
2022-10-11T04:38:24.994Z,1.02
2022-10-11T04:40:51.479Z,0.93
2022-10-11T04:43:18.906Z,0.73
2022-10-11T04:45:45.439Z,1.00
2022-10-11T04:48:11.926Z,0.90
2022-10-11T04:50:38.472Z,1.10
2022-10-11T04:53:04.936Z,0.82
2022-10-11T04:55:31.402Z,0.70
2022-10-11T04:57:57.896Z,0.82
2022-10-11T05:00:24.367Z,0.77
2022-10-11T05:02:52.159Z,0.90
2022-10-11T05:05:18.669Z,1.10
2022-10-11T05:07:45.157Z,0.88
2022-10-11T05:10:11.682Z,0.85
2022-10-11T05:12:38.201Z,0.90
2022-10-11T05:15:05.171Z,0.80
2022-10-11T05:17:32.195Z,0.80
2022-10-11T05:19:58.645Z,0.80
2022-10-11T05:22:25.108Z,0.82
2022-10-11T05:24:51.566Z,0.55
2022-10-11T05:27:18.022Z,0.70
2022-10-11T05:29:44.476Z,0.60
2022-10-11T05:32:10.977Z,0.73
2022-10-11T05:34:37.435Z,0.90
2022-10-11T05:37:03.905Z,0.93
2022-10-11T05:39:30.464Z,0.68
2022-10-11T05:41:57.361Z,0.95
2022-10-11T05:44:23.866Z,0.77
2022-10-11T05:46:50.333Z,0.90
2022-10-11T05:49:16.858Z,0.95
2022-10-11T05:51:43.519Z,0.90
2022-10-11T05:54:09.977Z,0.70
2022-10-11T05:56:36.456Z,0.90
2022-10-11T05:59:04.138Z,0.75
2022-10-11T06:01:30.686Z,0.80
2022-10-11T06:03:57.247Z,0.70
2022-10-11T06:06:23.782Z,0.73
2022-10-11T06:08:50.254Z,0.68
2022-10-11T06:11:19.168Z,0.80
2022-10-11T06:13:45.638Z,0.70
2022-10-11T06:16:12.492Z,0.80
2022-10-11T06:18:41.461Z,0.70
2022-10-11T06:21:08.287Z,0.55
2022-10-11T06:23:34.821Z,0.70
2022-10-11T06:26:07.252Z,0.70
2022-10-11T06:28:34.891Z,0.70
2022-10-11T06:31:03.539Z,0.60
2022-10-11T06:33:30.070Z,1.45
2022-10-11T06:36:01.603Z,1.45
2022-10-11T06:38:28.936Z,1.45
2022-10-11T06:40:55.451Z,1.27
2022-10-11T06:43:23.315Z,1.10
2022-10-11T06:45:49.901Z,1.08
2022-10-11T06:48:16.372Z,1.20
2022-10-11T06:50:59.179Z,0.95
2022-10-11T06:53:27.227Z,1.20
2022-10-11T06:55:53.695Z,0.90
2022-10-11T06:58:20.166Z,0.95
2022-10-11T07:00:46.674Z,0.90
2022-10-11T07:03:13.148Z,2.03
2022-10-11T07:05:39.648Z,2.30
2022-10-11T07:08:06.512Z,2.30
2022-10-11T07:10:32.988Z,2.00
2022-10-11T07:12:59.453Z,1.98
2022-10-11T07:15:26.002Z,1.45
2022-10-11T07:17:52.450Z,1.42
2022-10-11T07:20:19.194Z,1.90
2022-10-11T07:22:45.805Z,1.42
2022-10-11T07:25:12.306Z,1.30
2022-10-11T07:27:38.812Z,1.95
2022-10-11T07:30:05.863Z,1.60
2022-10-11T07:32:32.332Z,1.50
2022-10-11T07:34:58.786Z,1.65
2022-10-11T07:37:25.283Z,1.45
2022-10-11T07:39:51.752Z,1.67
2022-10-11T07:42:18.255Z,1.50
2022-10-11T07:44:44.776Z,1.90
2022-10-11T07:47:11.631Z,1.55
2022-10-11T07:49:38.132Z,1.70
2022-10-11T07:52:04.801Z,1.52
2022-10-11T07:54:31.636Z,1.40
2022-10-11T07:56:58.141Z,1.33
2022-10-11T07:59:24.594Z,1.55
2022-10-11T08:01:51.149Z,1.33
2022-10-11T08:04:17.646Z,1.70
2022-10-11T08:06:44.127Z,1.40
2022-10-11T08:09:12.074Z,1.50
2022-10-11T08:11:38.600Z,1.55
2022-10-11T08:14:08.563Z,1.42
2022-10-11T08:16:36.006Z,1.20
2022-10-11T08:19:03.222Z,1.50
2022-10-11T08:21:30.204Z,1.40
2022-10-11T08:23:56.694Z,1.60
2022-10-11T08:26:23.218Z,1.35
2022-10-11T08:28:49.792Z,1.75
2022-10-11T08:31:16.482Z,1.27
2022-10-11T08:33:43.104Z,1.50
2022-10-11T08:36:10.327Z,1.08
2022-10-11T08:38:37.139Z,1.40
2022-10-11T08:41:03.706Z,1.13
2022-10-11T08:43:33.133Z,1.50
2022-10-11T08:46:01.057Z,1.38
2022-10-11T08:48:37.230Z,1.42
2022-10-11T08:51:13.976Z,1.20
2022-10-11T08:53:45.273Z,1.33
2022-10-11T08:56:15.023Z,1.15
2022-10-11T08:59:10.807Z,1.30
2022-10-11T09:01:37.549Z,1.40
2022-10-11T09:04:06.049Z,1.20
2022-10-11T09:06:42.036Z,1.40
2022-10-11T09:09:42.245Z,1.35
2022-10-11T09:12:32.227Z,1.27
2022-10-11T09:15:43.399Z,1.48
2022-10-11T09:18:15.815Z,1.25
2022-10-11T09:21:15.859Z,1.20
2022-10-11T09:23:55.409Z,1.48
2022-10-11T09:26:26.132Z,1.55
2022-10-11T09:29:25.568Z,1.25
2022-10-11T09:31:55.808Z,1.50
2022-10-11T09:34:25.066Z,1.23
2022-10-11T09:37:17.991Z,1.05
2022-10-11T09:40:10.764Z,1.58
2022-10-11T09:42:37.241Z,1.23
2022-10-11T09:45:12.762Z,1.55
2022-10-11T09:47:39.236Z,1.67
2022-10-11T09:50:13.804Z,2.00
2022-10-11T09:52:53.937Z,1.38
2022-10-11T09:55:30.563Z,1.65
2022-10-11T09:57:57.244Z,1.65
2022-10-11T10:00:28.408Z,2.05
2022-10-11T10:02:56.083Z,1.65
2022-10-11T10:05:32.788Z,1.60
2022-10-11T10:08:04.885Z,1.80
2022-10-11T10:10:39.160Z,1.73
2022-10-11T10:13:15.168Z,1.90
2022-10-11T10:15:45.267Z,1.75
2022-10-11T10:18:17.142Z,1.80
2022-10-11T10:20:43.612Z,1.85
2022-10-11T10:23:18.766Z,2.00
2022-10-11T10:25:47.574Z,1.75
2022-10-11T10:28:22.314Z,1.50
2022-10-11T10:30:56.973Z,1.70
2022-10-11T10:33:29.868Z,1.33
2022-10-11T10:36:07.792Z,1.40
2022-10-11T10:38:41.031Z,1.63
2022-10-11T10:41:14.151Z,1.35
2022-10-11T10:43:41.921Z,1.37
2022-10-11T10:46:11.385Z,1.35
2022-10-11T10:49:28.304Z,1.50
2022-10-11T10:52:05.865Z,1.45
2022-10-11T10:54:49.996Z,1.40
2022-10-11T10:57:37.042Z,1.42
2022-10-11T11:00:13.659Z,1.20
2022-10-11T11:02:44.758Z,1.10
2022-10-11T11:05:18.755Z,1.40
2022-10-11T11:10:27.193Z,1.70
2022-10-11T11:13:12.535Z,0.90
2022-10-11T11:15:57.253Z,3.70
2022-10-11T11:18:29.192Z,5.05
2022-10-11T11:21:14.236Z,4.97
2022-10-11T11:24:20.715Z,3.50
2022-10-11T11:26:56.527Z,2.35
2022-10-11T11:29:41.188Z,2.58
2022-10-11T11:32:27.437Z,2.45
2022-10-11T11:35:14.874Z,2.65
2022-10-11T11:37:41.818Z,2.40
2022-10-11T11:40:14.758Z,1.92
2022-10-11T11:42:44.056Z,1.85
2022-10-11T11:45:24.668Z,2.33
2022-10-11T11:48:04.036Z,1.95
2022-10-11T11:50:36.888Z,1.90
2022-10-11T11:53:07.530Z,2.17
2022-10-11T11:55:55.179Z,1.70
2022-10-11T11:58:30.437Z,2.03
2022-10-11T12:01:15.574Z,1.83
2022-10-11T12:03:44.492Z,1.85
2022-10-11T12:06:14.204Z,2.00
2022-10-11T12:08:42.413Z,1.77
2022-10-11T12:11:18.994Z,1.48
2022-10-11T12:13:46.505Z,1.63
2022-10-11T12:16:14.313Z,1.45
2022-10-11T12:19:14.177Z,1.90
2022-10-11T12:21:41.491Z,1.85
2022-10-11T12:24:12.053Z,1.48
2022-10-11T12:26:45.974Z,1.77
2022-10-11T12:29:18.487Z,1.25
2022-10-11T12:31:46.303Z,1.50
2022-10-11T12:34:19.205Z,1.58
2022-10-11T12:36:49.904Z,1.42
2022-10-11T12:39:19.466Z,1.38
2022-10-11T12:41:53.410Z,1.52
2022-10-11T12:44:23.618Z,1.33
2022-10-11T12:46:57.669Z,1.27
2022-10-11T12:51:54.645Z,1.73
2022-10-11T12:54:37.289Z,1.30
2022-10-11T12:57:35.180Z,1.58
2022-10-11T13:00:21.107Z,1.20
2022-10-11T13:02:47.953Z,1.60
2022-10-11T13:05:24.739Z,1.42
2022-10-11T13:07:52.730Z,1.20
2022-10-11T13:10:45.679Z,1.27
2022-10-11T13:13:33.214Z,1.30
2022-10-11T13:16:03.515Z,1.30
2022-10-11T13:18:30.498Z,1.20
2022-10-11T13:20:57.175Z,1.30
2022-10-11T13:23:24.422Z,1.17
2022-10-11T13:25:51.057Z,1.30
2022-10-11T13:28:18.666Z,1.30
2022-10-11T13:30:54.691Z,1.05
2022-10-11T13:33:35.677Z,1.35
2022-10-11T13:36:03.805Z,1.30
2022-10-11T13:38:32.389Z,1.33
2022-10-11T13:40:59.605Z,1.05
2022-10-11T13:43:27.403Z,1.30
2022-10-11T13:45:54.581Z,1.27
2022-10-11T13:48:28.173Z,0.95
2022-10-11T13:51:16.728Z,1.40
2022-10-11T13:54:00.142Z,1.00
2022-10-11T13:56:27.417Z,1.30
2022-10-11T13:58:54.117Z,1.33
2022-10-11T14:01:26.799Z,1.02
2022-10-11T14:03:53.253Z,1.13
2022-10-11T14:06:19.717Z,1.10
2022-10-11T14:08:50.523Z,1.33
2022-10-11T14:11:20.939Z,1.10
2022-10-11T14:13:47.779Z,1.10
2022-10-11T14:16:28.899Z,1.00
2022-10-11T14:18:58.237Z,1.30
2022-10-11T14:21:34.675Z,1.20
2022-10-11T14:24:06.172Z,1.00
2022-10-11T14:26:39.874Z,1.80
2022-10-11T14:29:17.903Z,1.70
2022-10-11T14:31:44.359Z,1.50
2022-10-11T14:34:19.322Z,1.50
2022-10-11T14:36:45.874Z,1.63
2022-10-11T14:39:14.590Z,1.70
2022-10-11T14:41:41.077Z,1.80
2022-10-11T14:44:07.550Z,1.23
2022-10-11T14:46:35.806Z,1.10
2022-10-11T14:49:02.382Z,1.52
2022-10-11T14:51:31.187Z,1.30
2022-10-11T14:53:57.820Z,1.50
2022-10-11T14:56:24.326Z,1.50
2022-10-11T14:58:50.820Z,1.52
2022-10-11T15:01:17.388Z,1.48
2022-10-11T15:03:43.934Z,1.30
2022-10-11T15:06:18.583Z,1.35
2022-10-11T15:08:45.240Z,1.13
2022-10-11T15:11:13.318Z,1.23
2022-10-11T15:13:39.865Z,1.20
2022-10-11T15:16:07.098Z,1.25
2022-10-11T15:18:33.943Z,1.02
2022-10-11T15:21:00.663Z,1.10
2022-10-11T15:23:27.293Z,1.10
2022-10-11T15:25:53.841Z,1.40
2022-10-11T15:28:28.092Z,1.20
2022-10-11T15:30:54.671Z,1.50
2022-10-11T15:33:21.325Z,1.27
2022-10-11T15:35:47.802Z,1.33
2022-10-11T15:38:19.361Z,1.25
2022-10-11T15:40:46.022Z,0.93
2022-10-11T15:43:12.553Z,1.38
2022-10-11T15:45:39.039Z,1.00
2022-10-11T15:48:05.731Z,1.02
2022-10-11T15:50:34.366Z,0.98
2022-10-11T15:53:02.665Z,1.02
2022-10-11T15:55:29.784Z,1.02
2022-10-11T15:57:56.482Z,1.20
2022-10-11T16:00:23.106Z,1.10
2022-10-11T16:02:51.161Z,1.10
2022-10-11T16:05:21.748Z,1.25
2022-10-11T16:07:48.267Z,0.93
2022-10-11T16:10:14.802Z,1.27
2022-10-11T16:12:41.290Z,0.80
2022-10-11T16:15:08.043Z,1.13
2022-10-11T16:17:34.612Z,1.13
2022-10-11T16:20:01.157Z,1.00
2022-10-11T16:22:27.792Z,1.05
2022-10-11T16:24:55.325Z,1.20
2022-10-11T16:27:21.818Z,0.90
2022-10-11T16:29:48.340Z,1.10
2022-10-11T16:32:14.800Z,1.10
2022-10-11T16:34:41.326Z,1.67
2022-10-11T16:37:07.800Z,1.67
2022-10-11T16:39:34.796Z,1.75
2022-10-11T16:42:01.359Z,1.23
2022-10-11T16:44:28.069Z,1.50
2022-10-11T16:46:55.222Z,1.40
2022-10-11T16:49:24.053Z,1.65
2022-10-11T16:51:51.017Z,1.70
2022-10-11T16:54:20.498Z,1.38
2022-10-11T16:56:50.833Z,1.65
2022-10-11T16:59:17.339Z,1.50
2022-10-11T17:01:45.052Z,1.35
2022-10-11T17:04:11.743Z,1.50
2022-10-11T17:06:40.015Z,1.30
2022-10-11T17:09:06.845Z,1.63
2022-10-11T17:11:33.567Z,1.60
2022-10-11T17:14:00.113Z,1.13
2022-10-11T17:16:26.613Z,1.25
2022-10-11T17:18:53.071Z,1.30
2022-10-11T17:21:20.222Z,1.20
2022-10-11T17:23:48.345Z,1.13
2022-10-11T17:26:17.999Z,1.30
2022-10-11T17:28:44.871Z,1.25
2022-10-11T17:31:11.929Z,1.33
2022-10-11T17:33:38.534Z,1.35
2022-10-11T17:36:13.796Z,1.08
2022-10-11T17:38:40.298Z,1.02
2022-10-11T17:41:10.358Z,1.00
2022-10-11T17:43:36.816Z,1.00
2022-10-11T17:46:05.793Z,1.00
2022-10-11T17:48:33.567Z,1.00
2022-10-11T17:51:00.027Z,1.00
2022-10-11T17:53:26.512Z,1.00
2022-10-11T17:55:54.156Z,1.25
2022-10-11T17:58:21.625Z,0.90
2022-10-11T18:00:48.125Z,1.20
2022-10-11T18:03:14.632Z,1.40
2022-10-11T18:05:41.321Z,2.10
2022-10-11T18:08:08.016Z,1.85
2022-10-11T18:10:35.849Z,1.38
2022-10-11T18:13:06.458Z,1.63
2022-10-11T18:15:33.424Z,1.30
2022-10-11T18:17:59.939Z,1.40
2022-10-11T18:20:26.436Z,1.50
2022-10-11T18:22:55.753Z,1.50
2022-10-11T18:25:22.234Z,1.40
2022-10-11T18:27:48.735Z,1.42
2022-10-11T18:30:15.662Z,1.20
2022-10-11T18:32:43.762Z,1.40
2022-10-11T18:35:10.577Z,1.30
2022-10-11T18:37:37.067Z,1.10
2022-10-11T18:40:03.899Z,1.25
2022-10-11T18:42:30.406Z,1.17
2022-10-11T18:44:57.866Z,1.40
2022-10-11T18:47:24.327Z,1.30
2022-10-11T18:49:50.813Z,1.00
2022-10-11T18:52:17.332Z,0.98
2022-10-11T18:54:43.793Z,0.90
2022-10-11T18:57:10.300Z,0.93
2022-10-11T18:59:36.772Z,0.95
2022-10-11T19:02:04.793Z,1.20
2022-10-11T19:04:34.156Z,1.00
2022-10-11T19:07:00.630Z,1.10
2022-10-11T19:09:28.845Z,0.77
2022-10-11T19:11:55.755Z,0.90
2022-10-11T19:14:28.323Z,0.77
2022-10-11T19:16:54.827Z,0.88
2022-10-11T19:19:23.767Z,0.90
2022-10-11T19:21:50.362Z,1.30
2022-10-11T19:24:17.817Z,0.90
2022-10-11T19:26:44.313Z,1.00
2022-10-11T19:29:20.650Z,1.20
2022-10-11T19:31:49.082Z,0.98
2022-10-11T19:34:15.869Z,0.90
2022-10-11T19:36:42.763Z,1.08
2022-10-11T19:39:15.058Z,0.90
2022-10-11T19:41:41.632Z,1.00
2022-10-11T19:44:08.134Z,1.13
2022-10-11T19:49:24.626Z,1.05
2022-10-11T19:51:51.510Z,1.10
2022-10-11T19:54:17.990Z,1.15
2022-10-11T19:56:44.705Z,1.10
2022-10-11T19:59:11.490Z,1.30
2022-10-11T20:01:38.115Z,1.20
2022-10-11T20:04:06.256Z,1.15
2022-10-11T20:06:38.039Z,1.00
2022-10-11T20:09:28.067Z,1.27
2022-10-11T20:11:52.596Z,1.20
2022-10-11T20:14:19.082Z,1.40
2022-10-11T20:16:45.533Z,1.08
2022-10-11T20:19:12.018Z,1.52
2022-10-11T20:21:38.541Z,1.30
2022-10-11T20:24:06.834Z,1.38
2022-10-11T20:26:34.238Z,1.25
2022-10-11T20:29:00.769Z,1.15
2022-10-11T20:31:29.200Z,1.05
2022-10-11T20:33:56.877Z,1.00
2022-10-11T20:36:23.812Z,1.20
2022-10-11T20:38:50.471Z,1.13
2022-10-11T20:41:18.306Z,1.00
2022-10-11T20:43:45.495Z,1.30
2022-10-11T20:46:14.018Z,1.17
2022-10-11T20:48:40.665Z,1.20
2022-10-11T20:51:10.305Z,1.15
2022-10-11T20:53:37.365Z,1.65
2022-10-11T20:56:04.988Z,1.52
2022-10-11T20:58:31.455Z,0.93
2022-10-11T21:00:57.961Z,0.85
2022-10-11T21:03:24.493Z,1.45
2022-10-11T21:05:59.963Z,1.08
2022-10-11T21:08:26.780Z,1.20
2022-10-11T21:10:54.069Z,1.15
2022-10-11T21:13:20.648Z,1.08
2022-10-11T21:15:47.251Z,1.25
2022-10-11T21:18:13.899Z,1.20
2022-10-11T21:20:41.247Z,1.10
2022-10-11T21:23:08.236Z,1.00
2022-10-11T21:25:34.965Z,0.93
2022-10-11T21:28:01.511Z,1.10
2022-10-11T21:30:27.978Z,0.80
2022-10-11T21:32:57.523Z,1.10
2022-10-11T21:35:24.846Z,1.00
2022-10-11T21:37:51.302Z,1.10
2022-10-11T21:40:17.781Z,0.95
2022-10-11T21:42:44.440Z,1.13
2022-10-11T21:45:10.911Z,0.95
2022-10-11T21:47:39.139Z,1.13
2022-10-11T21:50:06.144Z,0.95
2022-10-11T21:52:32.850Z,0.98
2022-10-11T21:54:59.533Z,0.82
2022-10-11T21:57:25.990Z,0.90
2022-10-11T21:59:52.451Z,1.02
2022-10-11T22:02:19.173Z,1.00
2022-10-11T22:04:45.665Z,1.10
2022-10-11T22:07:12.123Z,1.30
2022-10-11T22:09:38.613Z,1.20
2022-10-11T22:12:05.338Z,1.00
2022-10-11T22:14:32.269Z,1.20
2022-10-11T22:16:58.784Z,0.82
2022-10-11T22:19:25.342Z,1.00
2022-10-11T22:21:52.155Z,1.00
2022-10-11T22:24:18.663Z,0.98
2022-10-11T22:26:45.188Z,1.00
2022-10-11T22:29:11.674Z,0.90
2022-10-11T22:31:38.124Z,1.10
2022-10-11T22:34:04.598Z,0.88
2022-10-11T22:36:31.057Z,1.17
2022-10-11T22:38:57.800Z,1.10
2022-10-11T22:41:24.264Z,0.90
2022-10-11T22:43:50.782Z,1.20
2022-10-11T22:46:17.326Z,1.40
2022-10-11T22:48:43.843Z,0.88
2022-10-11T22:51:10.299Z,1.00
2022-10-11T22:53:36.763Z,0.90
2022-10-11T22:56:03.506Z,1.10
2022-10-11T22:58:29.971Z,1.10
2022-10-11T23:00:56.436Z,1.17
2022-10-11T23:03:23.034Z,0.88
2022-10-11T23:05:56.798Z,1.30
2022-10-11T23:08:23.351Z,1.27
2022-10-11T23:10:49.832Z,0.98
2022-10-11T23:13:16.309Z,1.00
2022-10-11T23:15:42.780Z,1.10
2022-10-11T23:18:09.329Z,1.00
2022-10-11T23:20:37.111Z,0.82
2022-10-11T23:23:03.586Z,0.98
2022-10-11T23:25:30.033Z,1.15
2022-10-11T23:27:56.483Z,0.93
2022-10-11T23:30:22.945Z,1.05
2022-10-11T23:32:49.610Z,0.93
2022-10-11T23:35:16.108Z,0.73
2022-10-11T23:37:42.600Z,1.00
2022-10-11T23:40:09.299Z,1.15
2022-10-11T23:42:35.773Z,0.88
2022-10-11T23:45:02.251Z,1.02
2022-10-11T23:47:28.724Z,0.90
2022-10-11T23:49:55.202Z,0.90
2022-10-11T23:52:21.668Z,0.82
2022-10-11T23:54:48.238Z,1.08
2022-10-11T23:57:14.701Z,1.10
2022-10-11T23:59:41.211Z,0.80
